sensor_id;sensor_type;location;lat;lon;timestamp;P1;durP1;ratioP1;P2;durP2;ratioP2
10825;SDS011;5466;55.898;14.094;2023-11-21T00:00:49;12.52;;;8.15;;
10825;SDS011;5466;55.898;14.094;2023-11-21T00:02:50;9.70;;;7.72;;
10825;SDS011;5466;55.898;14.094;2023-11-21T00:04:51;9.53;;;7.30;;
10825;SDS011;5466;55.898;14.094;2023-11-21T00:06:52;12.48;;;8.13;;
10825;SDS011;5466;55.898;14.094;2023-11-21T00:08:52;12.17;;;7.37;;
10825;SDS011;5466;55.898;14.094;2023-11-21T00:10:53;9.45;;;7.75;;
10825;SDS011;5466;55.898;14.094;2023-11-21T00:12:54;11.43;;;7.85;;
10825;SDS011;5466;55.898;14.094;2023-11-21T00:14:55;12.73;;;7.68;;
10825;SDS011;5466;55.898;14.094;2023-11-21T00:16:56;11.02;;;8.25;;
10825;SDS011;5466;55.898;14.094;2023-11-21T00:18:56;10.95;;;7.63;;
10825;SDS011;5466;55.898;14.094;2023-11-21T00:20:57;10.90;;;7.80;;
10825;SDS011;5466;55.898;14.094;2023-11-21T00:22:59;11.50;;;7.65;;
10825;SDS011;5466;55.898;14.094;2023-11-21T00:24:59;8.93;;;7.35;;
10825;SDS011;5466;55.898;14.094;2023-11-21T00:27:00;9.73;;;7.38;;
10825;SDS011;5466;55.898;14.094;2023-11-21T00:29:01;9.60;;;7.67;;
10825;SDS011;5466;55.898;14.094;2023-11-21T00:31:02;10.73;;;7.60;;
10825;SDS011;5466;55.898;14.094;2023-11-21T00:33:04;9.55;;;7.68;;
10825;SDS011;5466;55.898;14.094;2023-11-21T00:35:04;9.20;;;6.93;;
10825;SDS011;5466;55.898;14.094;2023-11-21T00:37:05;9.18;;;7.20;;
10825;SDS011;5466;55.898;14.094;2023-11-21T00:39:07;12.02;;;8.48;;
10825;SDS011;5466;55.898;14.094;2023-11-21T00:41:08;11.88;;;8.55;;
10825;SDS011;5466;55.898;14.094;2023-11-21T00:43:09;15.85;;;8.90;;
10825;SDS011;5466;55.898;14.094;2023-11-21T00:45:10;10.93;;;7.65;;
10825;SDS011;5466;55.898;14.094;2023-11-21T00:47:11;11.75;;;8.45;;
10825;SDS011;5466;55.898;14.094;2023-11-21T00:49:12;11.88;;;8.02;;
10825;SDS011;5466;55.898;14.094;2023-11-21T00:51:13;12.27;;;8.38;;
10825;SDS011;5466;55.898;14.094;2023-11-21T00:53:14;12.45;;;7.97;;
10825;SDS011;5466;55.898;14.094;2023-11-21T00:55:14;8.45;;;6.93;;
10825;SDS011;5466;55.898;14.094;2023-11-21T00:57:15;11.18;;;7.85;;
10825;SDS011;5466;55.898;14.094;2023-11-21T00:59:16;9.80;;;7.80;;
10825;SDS011;5466;55.898;14.094;2023-11-21T01:01:17;10.82;;;7.85;;
10825;SDS011;5466;55.898;14.094;2023-11-21T01:03:18;10.35;;;7.63;;
10825;SDS011;5466;55.898;14.094;2023-11-21T01:05:18;12.82;;;7.63;;
10825;SDS011;5466;55.898;14.094;2023-11-21T01:07:19;10.07;;;7.82;;
10825;SDS011;5466;55.898;14.094;2023-11-21T01:09:20;9.52;;;7.47;;
10825;SDS011;5466;55.898;14.094;2023-11-21T01:11:21;12.60;;;7.13;;
10825;SDS011;5466;55.898;14.094;2023-11-21T01:13:21;11.88;;;7.55;;
10825;SDS011;5466;55.898;14.094;2023-11-21T01:15:22;10.05;;;7.38;;
10825;SDS011;5466;55.898;14.094;2023-11-21T01:17:23;9.27;;;7.20;;
10825;SDS011;5466;55.898;14.094;2023-11-21T01:19:23;11.00;;;7.18;;
10825;SDS011;5466;55.898;14.094;2023-11-21T01:21:24;10.27;;;7.22;;
10825;SDS011;5466;55.898;14.094;2023-11-21T01:23:25;10.55;;;7.47;;
10825;SDS011;5466;55.898;14.094;2023-11-21T01:25:26;10.47;;;7.40;;
10825;SDS011;5466;55.898;14.094;2023-11-21T01:27:27;9.55;;;7.50;;
10825;SDS011;5466;55.898;14.094;2023-11-21T01:29:28;9.30;;;7.28;;
10825;SDS011;5466;55.898;14.094;2023-11-21T01:31:28;12.18;;;7.57;;
10825;SDS011;5466;55.898;14.094;2023-11-21T01:33:29;12.13;;;7.30;;
10825;SDS011;5466;55.898;14.094;2023-11-21T01:35:30;12.85;;;8.00;;
10825;SDS011;5466;55.898;14.094;2023-11-21T01:37:31;11.18;;;7.63;;
10825;SDS011;5466;55.898;14.094;2023-11-21T01:39:31;11.27;;;7.65;;
10825;SDS011;5466;55.898;14.094;2023-11-21T01:41:32;12.27;;;7.35;;
10825;SDS011;5466;55.898;14.094;2023-11-21T01:43:32;9.30;;;7.30;;
10825;SDS011;5466;55.898;14.094;2023-11-21T01:45:33;9.73;;;7.03;;
10825;SDS011;5466;55.898;14.094;2023-11-21T01:47:34;8.05;;;6.50;;
10825;SDS011;5466;55.898;14.094;2023-11-21T01:49:36;10.13;;;7.53;;
10825;SDS011;5466;55.898;14.094;2023-11-21T01:51:37;9.20;;;7.30;;
10825;SDS011;5466;55.898;14.094;2023-11-21T01:53:38;8.25;;;7.13;;
10825;SDS011;5466;55.898;14.094;2023-11-21T01:55:40;9.90;;;7.38;;
10825;SDS011;5466;55.898;14.094;2023-11-21T01:57:42;10.85;;;7.60;;
10825;SDS011;5466;55.898;14.094;2023-11-21T01:59:43;12.35;;;7.80;;
10825;SDS011;5466;55.898;14.094;2023-11-21T02:01:45;10.90;;;7.07;;
10825;SDS011;5466;55.898;14.094;2023-11-21T02:03:46;9.65;;;7.00;;
10825;SDS011;5466;55.898;14.094;2023-11-21T02:05:47;11.48;;;7.22;;
10825;SDS011;5466;55.898;14.094;2023-11-21T02:07:48;11.50;;;7.65;;
10825;SDS011;5466;55.898;14.094;2023-11-21T02:09:48;9.43;;;7.53;;
10825;SDS011;5466;55.898;14.094;2023-11-21T02:11:49;11.15;;;7.35;;
10825;SDS011;5466;55.898;14.094;2023-11-21T02:13:50;7.45;;;6.38;;
10825;SDS011;5466;55.898;14.094;2023-11-21T02:15:53;11.93;;;7.35;;
10825;SDS011;5466;55.898;14.094;2023-11-21T02:17:54;9.00;;;6.85;;
10825;SDS011;5466;55.898;14.094;2023-11-21T02:19:55;13.20;;;7.10;;
10825;SDS011;5466;55.898;14.094;2023-11-21T02:21:56;10.30;;;7.28;;
10825;SDS011;5466;55.898;14.094;2023-11-21T02:24:06;10.68;;;7.85;;
10825;SDS011;5466;55.898;14.094;2023-11-21T02:26:07;10.80;;;6.68;;
10825;SDS011;5466;55.898;14.094;2023-11-21T02:28:09;10.02;;;6.97;;
10825;SDS011;5466;55.898;14.094;2023-11-21T02:30:12;10.15;;;6.75;;
10825;SDS011;5466;55.898;14.094;2023-11-21T02:32:14;8.20;;;6.70;;
10825;SDS011;5466;55.898;14.094;2023-11-21T02:34:15;8.05;;;6.55;;
10825;SDS011;5466;55.898;14.094;2023-11-21T02:36:16;11.57;;;6.97;;
10825;SDS011;5466;55.898;14.094;2023-11-21T02:38:16;8.15;;;6.75;;
10825;SDS011;5466;55.898;14.094;2023-11-21T02:40:17;9.00;;;6.10;;
10825;SDS011;5466;55.898;14.094;2023-11-21T02:42:18;8.13;;;6.57;;
10825;SDS011;5466;55.898;14.094;2023-11-21T02:44:19;9.63;;;6.85;;
10825;SDS011;5466;55.898;14.094;2023-11-21T02:46:19;7.93;;;6.60;;
10825;SDS011;5466;55.898;14.094;2023-11-21T02:48:20;8.32;;;6.63;;
10825;SDS011;5466;55.898;14.094;2023-11-21T02:50:24;9.45;;;6.43;;
10825;SDS011;5466;55.898;14.094;2023-11-21T02:52:24;11.82;;;6.25;;
10825;SDS011;5466;55.898;14.094;2023-11-21T02:54:25;9.70;;;6.25;;
10825;SDS011;5466;55.898;14.094;2023-11-21T02:56:27;9.07;;;6.25;;
10825;SDS011;5466;55.898;14.094;2023-11-21T02:58:28;7.28;;;6.13;;
10825;SDS011;5466;55.898;14.094;2023-11-21T03:00:29;7.00;;;5.60;;
10825;SDS011;5466;55.898;14.094;2023-11-21T03:02:29;9.38;;;6.53;;
10825;SDS011;5466;55.898;14.094;2023-11-21T03:04:30;8.88;;;6.13;;
10825;SDS011;5466;55.898;14.094;2023-11-21T03:06:32;6.68;;;5.68;;
10825;SDS011;5466;55.898;14.094;2023-11-21T03:08:33;7.65;;;5.88;;
10825;SDS011;5466;55.898;14.094;2023-11-21T03:10:34;9.02;;;5.70;;
10825;SDS011;5466;55.898;14.094;2023-11-21T03:12:35;10.80;;;6.25;;
10825;SDS011;5466;55.898;14.094;2023-11-21T03:14:36;8.15;;;6.07;;
10825;SDS011;5466;55.898;14.094;2023-11-21T03:16:37;7.70;;;6.10;;
10825;SDS011;5466;55.898;14.094;2023-11-21T03:18:38;7.53;;;6.43;;
10825;SDS011;5466;55.898;14.094;2023-11-21T03:20:39;9.43;;;6.60;;
10825;SDS011;5466;55.898;14.094;2023-11-21T03:22:39;8.57;;;6.60;;
10825;SDS011;5466;55.898;14.094;2023-11-21T03:24:40;9.13;;;6.38;;
10825;SDS011;5466;55.898;14.094;2023-11-21T03:26:41;8.80;;;6.38;;
10825;SDS011;5466;55.898;14.094;2023-11-21T03:28:41;10.13;;;6.40;;
10825;SDS011;5466;55.898;14.094;2023-11-21T03:30:42;9.25;;;6.28;;
10825;SDS011;5466;55.898;14.094;2023-11-21T03:32:43;9.13;;;6.28;;
10825;SDS011;5466;55.898;14.094;2023-11-21T03:34:53;8.95;;;6.68;;
10825;SDS011;5466;55.898;14.094;2023-11-21T03:36:56;8.75;;;6.28;;
10825;SDS011;5466;55.898;14.094;2023-11-21T03:38:56;9.80;;;7.35;;
10825;SDS011;5466;55.898;14.094;2023-11-21T03:40:57;10.00;;;5.68;;
10825;SDS011;5466;55.898;14.094;2023-11-21T03:42:58;8.90;;;6.15;;
10825;SDS011;5466;55.898;14.094;2023-11-21T03:44:58;8.85;;;6.30;;
10825;SDS011;5466;55.898;14.094;2023-11-21T03:46:59;10.07;;;6.50;;
10825;SDS011;5466;55.898;14.094;2023-11-21T03:49:00;10.27;;;7.22;;
10825;SDS011;5466;55.898;14.094;2023-11-21T03:51:00;8.57;;;6.43;;
10825;SDS011;5466;55.898;14.094;2023-11-21T03:53:01;9.40;;;7.15;;
10825;SDS011;5466;55.898;14.094;2023-11-21T03:55:02;12.52;;;7.60;;
10825;SDS011;5466;55.898;14.094;2023-11-21T03:57:03;10.90;;;6.80;;
10825;SDS011;5466;55.898;14.094;2023-11-21T03:59:03;11.23;;;7.55;;
10825;SDS011;5466;55.898;14.094;2023-11-21T04:01:04;8.95;;;6.78;;
10825;SDS011;5466;55.898;14.094;2023-11-21T04:03:05;11.82;;;7.15;;
10825;SDS011;5466;55.898;14.094;2023-11-21T04:05:06;8.20;;;6.40;;
10825;SDS011;5466;55.898;14.094;2023-11-21T04:07:07;10.77;;;6.90;;
10825;SDS011;5466;55.898;14.094;2023-11-21T04:09:07;12.43;;;6.47;;
10825;SDS011;5466;55.898;14.094;2023-11-21T04:11:08;8.38;;;6.20;;
10825;SDS011;5466;55.898;14.094;2023-11-21T04:13:09;8.13;;;6.45;;
10825;SDS011;5466;55.898;14.094;2023-11-21T04:15:10;11.43;;;6.95;;
10825;SDS011;5466;55.898;14.094;2023-11-21T04:17:13;9.20;;;6.78;;
10825;SDS011;5466;55.898;14.094;2023-11-21T04:19:13;9.75;;;6.13;;
10825;SDS011;5466;55.898;14.094;2023-11-21T04:21:14;10.38;;;6.47;;
10825;SDS011;5466;55.898;14.094;2023-11-21T04:23:15;9.63;;;6.18;;
10825;SDS011;5466;55.898;14.094;2023-11-21T04:25:16;9.77;;;6.07;;
10825;SDS011;5466;55.898;14.094;2023-11-21T04:27:17;8.18;;;6.30;;
10825;SDS011;5466;55.898;14.094;2023-11-21T04:29:18;11.57;;;6.70;;
10825;SDS011;5466;55.898;14.094;2023-11-21T04:31:18;7.32;;;5.93;;
10825;SDS011;5466;55.898;14.094;2023-11-21T04:33:19;7.35;;;5.88;;
10825;SDS011;5466;55.898;14.094;2023-11-21T04:35:21;6.72;;;5.45;;
10825;SDS011;5466;55.898;14.094;2023-11-21T04:37:22;10.32;;;6.10;;
10825;SDS011;5466;55.898;14.094;2023-11-21T04:39:22;6.07;;;4.97;;
10825;SDS011;5466;55.898;14.094;2023-11-21T04:41:23;7.85;;;5.70;;
10825;SDS011;5466;55.898;14.094;2023-11-21T04:43:24;6.85;;;5.10;;
10825;SDS011;5466;55.898;14.094;2023-11-21T04:45:25;7.57;;;5.25;;
10825;SDS011;5466;55.898;14.094;2023-11-21T04:47:25;7.28;;;5.50;;
10825;SDS011;5466;55.898;14.094;2023-11-21T04:49:26;7.78;;;5.70;;
10825;SDS011;5466;55.898;14.094;2023-11-21T04:51:26;8.65;;;5.72;;
10825;SDS011;5466;55.898;14.094;2023-11-21T04:53:27;8.40;;;5.13;;
10825;SDS011;5466;55.898;14.094;2023-11-21T04:55:28;9.55;;;5.95;;
10825;SDS011;5466;55.898;14.094;2023-11-21T04:57:28;10.43;;;5.20;;
10825;SDS011;5466;55.898;14.094;2023-11-21T04:59:29;6.95;;;5.78;;
10825;SDS011;5466;55.898;14.094;2023-11-21T05:01:30;6.75;;;5.00;;
10825;SDS011;5466;55.898;14.094;2023-11-21T05:03:30;7.65;;;4.93;;
10825;SDS011;5466;55.898;14.094;2023-11-21T05:05:32;7.40;;;5.20;;
10825;SDS011;5466;55.898;14.094;2023-11-21T05:07:33;5.40;;;4.47;;
10825;SDS011;5466;55.898;14.094;2023-11-21T05:09:35;6.90;;;5.65;;
10825;SDS011;5466;55.898;14.094;2023-11-21T05:11:36;7.18;;;5.30;;
10825;SDS011;5466;55.898;14.094;2023-11-21T05:13:37;7.45;;;4.85;;
10825;SDS011;5466;55.898;14.094;2023-11-21T05:15:39;7.38;;;4.95;;
10825;SDS011;5466;55.898;14.094;2023-11-21T05:17:40;6.90;;;5.35;;
10825;SDS011;5466;55.898;14.094;2023-11-21T05:19:49;6.68;;;5.20;;
10825;SDS011;5466;55.898;14.094;2023-11-21T05:21:50;8.52;;;5.30;;
10825;SDS011;5466;55.898;14.094;2023-11-21T05:23:50;8.90;;;6.32;;
10825;SDS011;5466;55.898;14.094;2023-11-21T05:25:51;10.55;;;6.57;;
10825;SDS011;5466;55.898;14.094;2023-11-21T05:27:52;8.68;;;6.15;;
10825;SDS011;5466;55.898;14.094;2023-11-21T05:29:53;10.70;;;6.82;;
10825;SDS011;5466;55.898;14.094;2023-11-21T05:31:54;14.15;;;7.07;;
10825;SDS011;5466;55.898;14.094;2023-11-21T05:33:54;10.85;;;7.03;;
10825;SDS011;5466;55.898;14.094;2023-11-21T05:35:56;11.65;;;7.05;;
10825;SDS011;5466;55.898;14.094;2023-11-21T05:37:56;12.95;;;7.13;;
10825;SDS011;5466;55.898;14.094;2023-11-21T05:39:57;8.45;;;6.60;;
10825;SDS011;5466;55.898;14.094;2023-11-21T05:41:57;8.57;;;6.90;;
10825;SDS011;5466;55.898;14.094;2023-11-21T05:44:00;12.30;;;7.13;;
10825;SDS011;5466;55.898;14.094;2023-11-21T05:46:01;10.45;;;6.40;;
10825;SDS011;5466;55.898;14.094;2023-11-21T05:48:01;8.60;;;6.50;;
10825;SDS011;5466;55.898;14.094;2023-11-21T05:50:03;8.00;;;5.97;;
10825;SDS011;5466;55.898;14.094;2023-11-21T05:52:05;7.43;;;5.75;;
10825;SDS011;5466;55.898;14.094;2023-11-21T05:54:06;10.25;;;6.88;;
10825;SDS011;5466;55.898;14.094;2023-11-21T05:56:08;8.48;;;6.07;;
10825;SDS011;5466;55.898;14.094;2023-11-21T05:58:08;11.02;;;6.35;;
10825;SDS011;5466;55.898;14.094;2023-11-21T06:00:12;8.43;;;5.65;;
10825;SDS011;5466;55.898;14.094;2023-11-21T06:02:20;9.45;;;6.40;;
10825;SDS011;5466;55.898;14.094;2023-11-21T06:04:21;8.87;;;5.83;;
10825;SDS011;5466;55.898;14.094;2023-11-21T06:06:24;6.97;;;5.20;;
10825;SDS011;5466;55.898;14.094;2023-11-21T06:08:25;7.55;;;5.47;;
10825;SDS011;5466;55.898;14.094;2023-11-21T06:10:26;9.67;;;5.47;;
10825;SDS011;5466;55.898;14.094;2023-11-21T06:12:28;8.20;;;5.55;;
10825;SDS011;5466;55.898;14.094;2023-11-21T06:14:29;7.13;;;5.53;;
10825;SDS011;5466;55.898;14.094;2023-11-21T06:16:29;10.23;;;6.20;;
10825;SDS011;5466;55.898;14.094;2023-11-21T06:18:30;8.70;;;6.03;;
10825;SDS011;5466;55.898;14.094;2023-11-21T06:20:31;9.70;;;6.10;;
10825;SDS011;5466;55.898;14.094;2023-11-21T06:22:32;13.27;;;8.40;;
10825;SDS011;5466;55.898;14.094;2023-11-21T06:24:32;14.53;;;8.23;;
10825;SDS011;5466;55.898;14.094;2023-11-21T06:26:33;13.17;;;8.83;;
10825;SDS011;5466;55.898;14.094;2023-11-21T06:28:34;13.57;;;7.20;;
10825;SDS011;5466;55.898;14.094;2023-11-21T06:30:38;7.13;;;5.57;;
10825;SDS011;5466;55.898;14.094;2023-11-21T06:32:39;7.67;;;5.50;;
10825;SDS011;5466;55.898;14.094;2023-11-21T06:34:39;8.87;;;5.60;;
10825;SDS011;5466;55.898;14.094;2023-11-21T06:36:40;7.50;;;5.73;;
10825;SDS011;5466;55.898;14.094;2023-11-21T06:38:41;7.23;;;5.20;;
10825;SDS011;5466;55.898;14.094;2023-11-21T06:40:41;10.27;;;5.03;;
10825;SDS011;5466;55.898;14.094;2023-11-21T06:42:42;7.87;;;5.30;;
10825;SDS011;5466;55.898;14.094;2023-11-21T06:44:44;10.60;;;6.17;;
10825;SDS011;5466;55.898;14.094;2023-11-21T06:46:45;10.33;;;6.10;;
10825;SDS011;5466;55.898;14.094;2023-11-21T06:48:46;8.13;;;5.60;;
10825;SDS011;5466;55.898;14.094;2023-11-21T06:50:48;11.33;;;6.00;;
10825;SDS011;5466;55.898;14.094;2023-11-21T06:52:49;11.97;;;7.03;;
10825;SDS011;5466;55.898;14.094;2023-11-21T06:54:49;13.37;;;6.93;;
10825;SDS011;5466;55.898;14.094;2023-11-21T06:56:50;7.27;;;5.47;;
10825;SDS011;5466;55.898;14.094;2023-11-21T06:58:53;8.53;;;6.37;;
10825;SDS011;5466;55.898;14.094;2023-11-21T07:00:54;10.20;;;6.23;;
10825;SDS011;5466;55.898;14.094;2023-11-21T07:02:55;9.23;;;6.70;;
10825;SDS011;5466;55.898;14.094;2023-11-21T07:04:55;12.00;;;6.63;;
10825;SDS011;5466;55.898;14.094;2023-11-21T07:06:56;8.27;;;6.23;;
10825;SDS011;5466;55.898;14.094;2023-11-21T07:08:56;7.43;;;5.67;;
10825;SDS011;5466;55.898;14.094;2023-11-21T07:10:58;11.10;;;6.20;;
10825;SDS011;5466;55.898;14.094;2023-11-21T07:12:59;8.77;;;6.10;;
10825;SDS011;5466;55.898;14.094;2023-11-21T07:14:59;11.03;;;6.43;;
10825;SDS011;5466;55.898;14.094;2023-11-21T07:17:00;8.47;;;5.50;;
10825;SDS011;5466;55.898;14.094;2023-11-21T07:19:00;7.33;;;5.70;;
10825;SDS011;5466;55.898;14.094;2023-11-21T07:21:01;8.53;;;6.17;;
10825;SDS011;5466;55.898;14.094;2023-11-21T07:23:02;8.97;;;5.80;;
10825;SDS011;5466;55.898;14.094;2023-11-21T07:25:04;8.27;;;5.53;;
10825;SDS011;5466;55.898;14.094;2023-11-21T07:27:05;8.47;;;6.17;;
10825;SDS011;5466;55.898;14.094;2023-11-21T07:29:06;8.20;;;5.47;;
10825;SDS011;5466;55.898;14.094;2023-11-21T07:31:06;6.70;;;4.90;;
10825;SDS011;5466;55.898;14.094;2023-11-21T07:33:07;8.13;;;5.77;;
10825;SDS011;5466;55.898;14.094;2023-11-21T07:35:08;8.90;;;5.17;;
10825;SDS011;5466;55.898;14.094;2023-11-21T07:37:08;7.87;;;5.23;;
10825;SDS011;5466;55.898;14.094;2023-11-21T07:39:09;8.33;;;5.30;;
10825;SDS011;5466;55.898;14.094;2023-11-21T07:41:10;7.13;;;5.43;;
10825;SDS011;5466;55.898;14.094;2023-11-21T07:43:11;8.40;;;5.33;;
10825;SDS011;5466;55.898;14.094;2023-11-21T07:45:12;7.00;;;4.70;;
10825;SDS011;5466;55.898;14.094;2023-11-21T07:47:12;6.10;;;4.50;;
10825;SDS011;5466;55.898;14.094;2023-11-21T07:49:13;5.90;;;4.30;;
10825;SDS011;5466;55.898;14.094;2023-11-21T07:51:20;6.82;;;4.97;;
10825;SDS011;5466;55.898;14.094;2023-11-21T07:53:22;6.23;;;4.67;;
10825;SDS011;5466;55.898;14.094;2023-11-21T07:55:22;5.60;;;4.30;;
10825;SDS011;5466;55.898;14.094;2023-11-21T07:57:24;5.80;;;4.32;;
10825;SDS011;5466;55.898;14.094;2023-11-21T07:59:26;6.40;;;4.00;;
10825;SDS011;5466;55.898;14.094;2023-11-21T08:01:26;6.40;;;4.07;;
10825;SDS011;5466;55.898;14.094;2023-11-21T08:03:28;6.10;;;3.80;;
10825;SDS011;5466;55.898;14.094;2023-11-21T08:05:31;5.10;;;4.03;;
10825;SDS011;5466;55.898;14.094;2023-11-21T08:07:33;6.82;;;4.57;;
10825;SDS011;5466;55.898;14.094;2023-11-21T08:09:34;5.68;;;3.05;;
10825;SDS011;5466;55.898;14.094;2023-11-21T08:11:34;6.33;;;3.63;;
10825;SDS011;5466;55.898;14.094;2023-11-21T08:13:35;10.75;;;5.18;;
10825;SDS011;5466;55.898;14.094;2023-11-21T08:15:36;5.03;;;3.90;;
10825;SDS011;5466;55.898;14.094;2023-11-21T08:17:37;4.75;;;3.60;;
10825;SDS011;5466;55.898;14.094;2023-11-21T08:19:38;4.88;;;3.55;;
10825;SDS011;5466;55.898;14.094;2023-11-21T08:21:39;5.17;;;3.83;;
10825;SDS011;5466;55.898;14.094;2023-11-21T08:23:40;4.32;;;3.55;;
10825;SDS011;5466;55.898;14.094;2023-11-21T08:25:41;4.07;;;3.55;;
10825;SDS011;5466;55.898;14.094;2023-11-21T08:27:45;5.03;;;3.55;;
10825;SDS011;5466;55.898;14.094;2023-11-21T08:29:46;5.73;;;3.67;;
10825;SDS011;5466;55.898;14.094;2023-11-21T08:31:47;4.53;;;3.20;;
10825;SDS011;5466;55.898;14.094;2023-11-21T08:33:47;4.70;;;3.40;;
10825;SDS011;5466;55.898;14.094;2023-11-21T08:35:48;3.67;;;3.00;;
10825;SDS011;5466;55.898;14.094;2023-11-21T08:37:52;3.60;;;3.20;;
10825;SDS011;5466;55.898;14.094;2023-11-21T08:39:53;4.27;;;3.17;;
10825;SDS011;5466;55.898;14.094;2023-11-21T08:41:54;5.53;;;3.70;;
10825;SDS011;5466;55.898;14.094;2023-11-21T08:43:55;5.70;;;3.47;;
10825;SDS011;5466;55.898;14.094;2023-11-21T08:45:56;4.17;;;3.50;;
10825;SDS011;5466;55.898;14.094;2023-11-21T08:47:56;4.33;;;3.30;;
10825;SDS011;5466;55.898;14.094;2023-11-21T08:49:57;5.00;;;3.30;;
10825;SDS011;5466;55.898;14.094;2023-11-21T08:51:58;6.67;;;3.67;;
10825;SDS011;5466;55.898;14.094;2023-11-21T08:56:07;8.13;;;3.90;;
10825;SDS011;5466;55.898;14.094;2023-11-21T08:58:12;5.60;;;3.92;;
10825;SDS011;5466;55.898;14.094;2023-11-21T09:00:13;5.07;;;3.40;;
10825;SDS011;5466;55.898;14.094;2023-11-21T09:02:15;3.78;;;3.30;;
10825;SDS011;5466;55.898;14.094;2023-11-21T09:04:16;4.13;;;3.63;;
10825;SDS011;5466;55.898;14.094;2023-11-21T09:06:17;4.90;;;3.50;;
10825;SDS011;5466;55.898;14.094;2023-11-21T09:08:17;6.10;;;3.97;;
10825;SDS011;5466;55.898;14.094;2023-11-21T09:10:18;4.78;;;3.65;;
10825;SDS011;5466;55.898;14.094;2023-11-21T09:12:19;7.10;;;4.53;;
10825;SDS011;5466;55.898;14.094;2023-11-21T09:14:20;8.00;;;4.90;;
10825;SDS011;5466;55.898;14.094;2023-11-21T09:16:20;11.98;;;6.32;;
10825;SDS011;5466;55.898;14.094;2023-11-21T09:18:21;14.80;;;6.23;;
10825;SDS011;5466;55.898;14.094;2023-11-21T09:20:22;18.37;;;9.53;;
10825;SDS011;5466;55.898;14.094;2023-11-21T09:22:23;6.03;;;4.43;;
10825;SDS011;5466;55.898;14.094;2023-11-21T09:24:29;7.10;;;4.40;;
10825;SDS011;5466;55.898;14.094;2023-11-21T09:26:30;5.45;;;3.42;;
10825;SDS011;5466;55.898;14.094;2023-11-21T09:28:31;4.80;;;4.00;;
10825;SDS011;5466;55.898;14.094;2023-11-21T09:30:32;4.55;;;3.28;;
10825;SDS011;5466;55.898;14.094;2023-11-21T09:32:32;6.20;;;3.60;;
10825;SDS011;5466;55.898;14.094;2023-11-21T09:34:35;5.30;;;3.17;;
10825;SDS011;5466;55.898;14.094;2023-11-21T09:36:38;9.70;;;3.65;;
10825;SDS011;5466;55.898;14.094;2023-11-21T09:38:39;5.13;;;3.03;;
10825;SDS011;5466;55.898;14.094;2023-11-21T09:40:41;3.40;;;2.88;;
10825;SDS011;5466;55.898;14.094;2023-11-21T09:42:55;3.85;;;3.13;;
10825;SDS011;5466;55.898;14.094;2023-11-21T09:45:03;4.18;;;3.08;;
10825;SDS011;5466;55.898;14.094;2023-11-21T09:47:16;4.88;;;3.08;;
10825;SDS011;5466;55.898;14.094;2023-11-21T09:49:18;3.17;;;2.88;;
10825;SDS011;5466;55.898;14.094;2023-11-21T09:51:21;3.88;;;2.67;;
10825;SDS011;5466;55.898;14.094;2023-11-21T09:53:27;3.22;;;2.83;;
10825;SDS011;5466;55.898;14.094;2023-11-21T09:55:34;3.17;;;2.88;;
10825;SDS011;5466;55.898;14.094;2023-11-21T09:57:38;5.65;;;3.67;;
10825;SDS011;5466;55.898;14.094;2023-11-21T09:59:39;4.95;;;2.88;;
10825;SDS011;5466;55.898;14.094;2023-11-21T10:01:41;2.60;;;2.40;;
10825;SDS011;5466;55.898;14.094;2023-11-21T10:03:42;3.15;;;2.85;;
10825;SDS011;5466;55.898;14.094;2023-11-21T10:05:43;4.90;;;2.95;;
10825;SDS011;5466;55.898;14.094;2023-11-21T10:07:45;4.55;;;3.03;;
10825;SDS011;5466;55.898;14.094;2023-11-21T10:09:47;3.80;;;3.00;;
10825;SDS011;5466;55.898;14.094;2023-11-21T10:11:48;2.95;;;2.65;;
10825;SDS011;5466;55.898;14.094;2023-11-21T10:13:54;3.25;;;2.63;;
10825;SDS011;5466;55.898;14.094;2023-11-21T10:15:57;3.92;;;2.70;;
10825;SDS011;5466;55.898;14.094;2023-11-21T10:17:59;3.55;;;2.72;;
10825;SDS011;5466;55.898;14.094;2023-11-21T10:20:04;3.10;;;2.42;;
10825;SDS011;5466;55.898;14.094;2023-11-21T10:22:11;3.50;;;2.85;;
10825;SDS011;5466;55.898;14.094;2023-11-21T10:24:12;4.82;;;2.65;;
10825;SDS011;5466;55.898;14.094;2023-11-21T10:26:13;3.13;;;2.50;;
10825;SDS011;5466;55.898;14.094;2023-11-21T10:28:17;3.22;;;2.22;;
10825;SDS011;5466;55.898;14.094;2023-11-21T10:30:17;3.05;;;2.75;;
10825;SDS011;5466;55.898;14.094;2023-11-21T10:32:18;6.13;;;2.90;;
10825;SDS011;5466;55.898;14.094;2023-11-21T10:34:19;3.03;;;2.70;;
10825;SDS011;5466;55.898;14.094;2023-11-21T10:36:26;4.47;;;2.65;;
10825;SDS011;5466;55.898;14.094;2023-11-21T10:38:27;2.70;;;2.50;;
10825;SDS011;5466;55.898;14.094;2023-11-21T10:40:38;2.80;;;2.40;;
10825;SDS011;5466;55.898;14.094;2023-11-21T10:42:42;3.65;;;2.70;;
10825;SDS011;5466;55.898;14.094;2023-11-21T10:44:42;4.93;;;2.83;;
10825;SDS011;5466;55.898;14.094;2023-11-21T10:46:46;3.03;;;2.20;;
10825;SDS011;5466;55.898;14.094;2023-11-21T10:48:56;3.90;;;2.30;;
10825;SDS011;5466;55.898;14.094;2023-11-21T10:50:57;3.05;;;2.50;;
10825;SDS011;5466;55.898;14.094;2023-11-21T10:52:57;2.75;;;2.17;;
10825;SDS011;5466;55.898;14.094;2023-11-21T10:54:58;5.22;;;2.60;;
10825;SDS011;5466;55.898;14.094;2023-11-21T10:57:03;2.50;;;2.30;;
10825;SDS011;5466;55.898;14.094;2023-11-21T10:59:09;2.67;;;2.47;;
10825;SDS011;5466;55.898;14.094;2023-11-21T11:01:17;5.30;;;3.08;;
10825;SDS011;5466;55.898;14.094;2023-11-21T11:03:18;4.53;;;2.95;;
10825;SDS011;5466;55.898;14.094;2023-11-21T11:05:19;2.78;;;2.50;;
10825;SDS011;5466;55.898;14.094;2023-11-21T11:07:21;3.13;;;2.63;;
10825;SDS011;5466;55.898;14.094;2023-11-21T11:09:27;2.60;;;2.40;;
10825;SDS011;5466;55.898;14.094;2023-11-21T11:11:30;5.75;;;3.03;;
10825;SDS011;5466;55.898;14.094;2023-11-21T11:13:30;2.90;;;2.50;;
10825;SDS011;5466;55.898;14.094;2023-11-21T11:15:31;3.28;;;2.80;;
10825;SDS011;5466;55.898;14.094;2023-11-21T11:17:33;3.67;;;2.70;;
10825;SDS011;5466;55.898;14.094;2023-11-21T11:19:34;6.00;;;2.55;;
10825;SDS011;5466;55.898;14.094;2023-11-21T11:21:45;3.33;;;3.00;;
10825;SDS011;5466;55.898;14.094;2023-11-21T11:28:10;3.20;;;2.75;;
10825;SDS011;5466;55.898;14.094;2023-11-21T11:32:50;3.22;;;2.90;;
10825;SDS011;5466;55.898;14.094;2023-11-21T11:35:10;3.03;;;2.60;;
10825;SDS011;5466;55.898;14.094;2023-11-21T11:37:30;3.72;;;3.08;;
10825;SDS011;5466;55.898;14.094;2023-11-21T11:39:33;4.90;;;2.80;;
10825;SDS011;5466;55.898;14.094;2023-11-21T11:41:39;3.97;;;2.92;;
10825;SDS011;5466;55.898;14.094;2023-11-21T11:43:40;2.97;;;2.58;;
10825;SDS011;5466;55.898;14.094;2023-11-21T11:45:46;8.00;;;2.70;;
10825;SDS011;5466;55.898;14.094;2023-11-21T11:47:56;3.67;;;2.72;;
10825;SDS011;5466;55.898;14.094;2023-11-21T11:54:37;3.58;;;2.80;;
10825;SDS011;5466;55.898;14.094;2023-11-21T11:56:38;3.08;;;2.78;;
10825;SDS011;5466;55.898;14.094;2023-11-21T11:58:40;6.75;;;2.65;;
10825;SDS011;5466;55.898;14.094;2023-11-21T12:00:41;3.50;;;2.70;;
10825;SDS011;5466;55.898;14.094;2023-11-21T12:02:46;3.50;;;3.03;;
10825;SDS011;5466;55.898;14.094;2023-11-21T12:04:58;3.70;;;3.10;;
10825;SDS011;5466;55.898;14.094;2023-11-21T12:07:00;2.88;;;2.60;;
10825;SDS011;5466;55.898;14.094;2023-11-21T12:09:03;4.07;;;2.70;;
10825;SDS011;5466;55.898;14.094;2023-11-21T12:11:07;4.75;;;3.42;;
10825;SDS011;5466;55.898;14.094;2023-11-21T12:13:10;4.93;;;3.00;;
10825;SDS011;5466;55.898;14.094;2023-11-21T12:15:13;3.17;;;2.83;;
10825;SDS011;5466;55.898;14.094;2023-11-21T12:17:14;4.70;;;2.90;;
10825;SDS011;5466;55.898;14.094;2023-11-21T12:19:15;4.30;;;3.13;;
10825;SDS011;5466;55.898;14.094;2023-11-21T12:21:22;3.50;;;2.90;;
10825;SDS011;5466;55.898;14.094;2023-11-21T12:23:23;3.30;;;3.00;;